sensor_id;sensor_type;location;lat;lon;timestamp;pressure;altitude;pressure_sealevel;temperature;humidity
79584;BME280;69053;57.338;18.700;2023-11-18T00:00:15;102306.03;;;4.29;59.54
79584;BME280;69053;57.338;18.700;2023-11-18T00:03:17;102292.69;;;4.27;58.86
79584;BME280;69053;57.338;18.700;2023-11-18T00:06:17;102293.97;;;4.33;57.22
79584;BME280;69053;57.338;18.700;2023-11-18T00:09:18;102294.03;;;4.43;57.51
79584;BME280;69053;57.338;18.700;2023-11-18T00:12:20;102291.91;;;4.46;57.73
79584;BME280;69053;57.338;18.700;2023-11-18T00:15:20;102292.16;;;4.43;58.56
79584;BME280;69053;57.338;18.700;2023-11-18T00:18:21;102294.44;;;4.38;58.83
79584;BME280;69053;57.338;18.700;2023-11-18T00:21:21;102295.69;;;4.34;59.40
79584;BME280;69053;57.338;18.700;2023-11-18T00:24:22;102297.25;;;4.27;60.48
79584;BME280;69053;57.338;18.700;2023-11-18T00:27:22;102293.25;;;4.21;60.88
79584;BME280;69053;57.338;18.700;2023-11-18T00:30:23;102292.94;;;4.15;60.74
79584;BME280;69053;57.338;18.700;2023-11-18T00:33:23;102294.03;;;4.12;61.15
79584;BME280;69053;57.338;18.700;2023-11-18T00:36:24;102297.00;;;4.09;61.53
79584;BME280;69053;57.338;18.700;2023-11-18T00:39:25;102306.09;;;4.08;61.65
79584;BME280;69053;57.338;18.700;2023-11-18T00:42:25;102301.81;;;4.05;61.96
79584;BME280;69053;57.338;18.700;2023-11-18T00:45:26;102298.41;;;4.03;62.05
79584;BME280;69053;57.338;18.700;2023-11-18T00:48:28;102301.38;;;4.00;62.71
79584;BME280;69053;57.338;18.700;2023-11-18T00:51:30;102296.22;;;3.97;63.00
79584;BME280;69053;57.338;18.700;2023-11-18T00:54:31;102304.75;;;3.92;63.23
79584;BME280;69053;57.338;18.700;2023-11-18T00:57:31;102307.94;;;3.86;63.28
79584;BME280;69053;57.338;18.700;2023-11-18T01:00:32;102308.38;;;3.82;63.77
79584;BME280;69053;57.338;18.700;2023-11-18T01:03:32;102299.28;;;3.83;63.93
79584;BME280;69053;57.338;18.700;2023-11-18T01:06:34;102293.88;;;3.83;64.70
79584;BME280;69053;57.338;18.700;2023-11-18T01:09:34;102283.94;;;3.83;64.70
79584;BME280;69053;57.338;18.700;2023-11-18T01:12:39;102285.94;;;3.81;65.02
79584;BME280;69053;57.338;18.700;2023-11-18T01:15:40;102283.66;;;3.77;65.28
79584;BME280;69053;57.338;18.700;2023-11-18T01:18:41;102295.34;;;3.66;65.58
79584;BME280;69053;57.338;18.700;2023-11-18T01:21:41;102304.81;;;3.60;65.34
79584;BME280;69053;57.338;18.700;2023-11-18T01:24:42;102299.69;;;3.57;65.91
79584;BME280;69053;57.338;18.700;2023-11-18T01:27:42;102294.84;;;3.51;66.24
79584;BME280;69053;57.338;18.700;2023-11-18T01:30:45;102300.47;;;3.48;65.91
79584;BME280;69053;57.338;18.700;2023-11-18T01:33:46;102302.44;;;3.46;66.20
79584;BME280;69053;57.338;18.700;2023-11-18T01:36:47;102296.78;;;3.49;66.00
79584;BME280;69053;57.338;18.700;2023-11-18T01:39:49;102300.22;;;3.51;65.72
79584;BME280;69053;57.338;18.700;2023-11-18T01:42:50;102296.53;;;3.52;65.75
79584;BME280;69053;57.338;18.700;2023-11-18T01:45:50;102299.94;;;3.54;65.46
79584;BME280;69053;57.338;18.700;2023-11-18T01:48:52;102307.19;;;3.53;65.63
79584;BME280;69053;57.338;18.700;2023-11-18T01:51:52;102303.63;;;3.53;65.73
79584;BME280;69053;57.338;18.700;2023-11-18T01:54:54;102312.69;;;3.52;65.84
79584;BME280;69053;57.338;18.700;2023-11-18T01:57:55;102306.59;;;3.50;65.96
79584;BME280;69053;57.338;18.700;2023-11-18T02:00:57;102307.56;;;3.49;66.08
79584;BME280;69053;57.338;18.700;2023-11-18T02:03:58;102310.53;;;3.46;66.31
79584;BME280;69053;57.338;18.700;2023-11-18T02:06:59;102303.44;;;3.45;66.05
79584;BME280;69053;57.338;18.700;2023-11-18T02:10:04;102299.75;;;3.46;66.26
79584;BME280;69053;57.338;18.700;2023-11-18T02:13:38;102310.53;;;3.46;66.32
79584;BME280;69053;57.338;18.700;2023-11-18T02:16:41;102305.28;;;3.44;66.45
79584;BME280;69053;57.338;18.700;2023-11-18T02:19:43;102307.84;;;3.46;66.52
79584;BME280;69053;57.338;18.700;2023-11-18T02:22:45;102308.69;;;3.46;66.18
79584;BME280;69053;57.338;18.700;2023-11-18T02:25:48;102305.88;;;3.48;66.42
79584;BME280;69053;57.338;18.700;2023-11-18T02:28:49;102307.56;;;3.49;66.27
79584;BME280;69053;57.338;18.700;2023-11-18T02:31:53;102304.88;;;3.49;66.16
79584;BME280;69053;57.338;18.700;2023-11-18T02:38:10;102314.66;;;3.50;66.50
79584;BME280;69053;57.338;18.700;2023-11-18T02:41:12;102314.66;;;3.50;66.49
79584;BME280;69053;57.338;18.700;2023-11-18T02:44:14;102305.63;;;3.51;66.65
79584;BME280;69053;57.338;18.700;2023-11-18T02:47:18;102305.44;;;3.52;66.65
79584;BME280;69053;57.338;18.700;2023-11-18T02:50:18;102309.28;;;3.50;66.76
79584;BME280;69053;57.338;18.700;2023-11-18T02:53:19;102308.56;;;3.48;66.62
79584;BME280;69053;57.338;18.700;2023-11-18T02:56:20;102297.91;;;3.46;66.89
79584;BME280;69053;57.338;18.700;2023-11-18T02:59:20;102307.09;;;3.44;67.03
79584;BME280;69053;57.338;18.700;2023-11-18T03:02:21;102305.66;;;3.40;67.55
79584;BME280;69053;57.338;18.700;2023-11-18T03:05:22;102305.78;;;3.38;67.22
79584;BME280;69053;57.338;18.700;2023-11-18T03:08:23;102306.78;;;3.37;67.55
79584;BME280;69053;57.338;18.700;2023-11-18T03:11:24;102313.16;;;3.36;67.76
79584;BME280;69053;57.338;18.700;2023-11-18T03:14:24;102308.84;;;3.33;67.76
79584;BME280;69053;57.338;18.700;2023-11-18T03:17:25;102304.59;;;3.31;67.82
79584;BME280;69053;57.338;18.700;2023-11-18T03:20:25;102323.56;;;3.29;68.07
79584;BME280;69053;57.338;18.700;2023-11-18T03:23:26;102323.09;;;3.24;68.33
79584;BME280;69053;57.338;18.700;2023-11-18T03:26:26;102323.34;;;3.21;68.47
79584;BME280;69053;57.338;18.700;2023-11-18T03:29:27;102319.81;;;3.21;68.31
79584;BME280;69053;57.338;18.700;2023-11-18T03:32:29;102322.38;;;3.22;68.32
79584;BME280;69053;57.338;18.700;2023-11-18T03:35:31;102323.94;;;3.25;68.44
79584;BME280;69053;57.338;18.700;2023-11-18T03:38:33;102317.59;;;3.26;68.29
79584;BME280;69053;57.338;18.700;2023-11-18T03:41:33;102306.22;;;3.22;68.55
79584;BME280;69053;57.338;18.700;2023-11-18T03:44:34;102308.78;;;3.24;68.44
79584;BME280;69053;57.338;18.700;2023-11-18T03:47:34;102307.66;;;3.26;68.53
79584;BME280;69053;57.338;18.700;2023-11-18T03:50:35;102314.78;;;3.27;68.47
79584;BME280;69053;57.338;18.700;2023-11-18T03:53:35;102308.53;;;3.27;68.50
79584;BME280;69053;57.338;18.700;2023-11-18T03:56:36;102305.09;;;3.25;68.69
79584;BME280;69053;57.338;18.700;2023-11-18T03:59:38;102308.78;;;3.24;68.80
79584;BME280;69053;57.338;18.700;2023-11-18T04:02:39;102319.69;;;3.22;69.02
79584;BME280;69053;57.338;18.700;2023-11-18T04:05:40;102321.66;;;3.20;69.26
79584;BME280;69053;57.338;18.700;2023-11-18T04:08:44;102313.72;;;3.18;68.96
79584;BME280;69053;57.338;18.700;2023-11-18T04:11:44;102311.88;;;3.19;69.13
79584;BME280;69053;57.338;18.700;2023-11-18T04:14:46;102320.06;;;3.17;69.28
79584;BME280;69053;57.338;18.700;2023-11-18T04:17:46;102319.22;;;3.17;69.44
79584;BME280;69053;57.338;18.700;2023-11-18T04:20:47;102327.31;;;3.17;69.33
79584;BME280;69053;57.338;18.700;2023-11-18T04:23:47;102323.88;;;3.15;69.34
79584;BME280;69053;57.338;18.700;2023-11-18T04:26:48;102328.53;;;3.13;69.62
79584;BME280;69053;57.338;18.700;2023-11-18T04:29:49;102324.84;;;3.14;69.45
79584;BME280;69053;57.338;18.700;2023-11-18T04:32:49;102318.63;;;3.13;69.65
79584;BME280;69053;57.338;18.700;2023-11-18T04:35:52;102316.91;;;3.12;69.64
79584;BME280;69053;57.338;18.700;2023-11-18T04:38:52;102319.59;;;3.12;69.59
79584;BME280;69053;57.338;18.700;2023-11-18T04:41:53;102316.91;;;3.12;69.92
79584;BME280;69053;57.338;18.700;2023-11-18T04:44:53;102316.19;;;3.10;69.90
79584;BME280;69053;57.338;18.700;2023-11-18T04:47:54;102312.53;;;3.11;69.75
79584;BME280;69053;57.338;18.700;2023-11-18T04:50:55;102314.47;;;3.09;69.87
79584;BME280;69053;57.338;18.700;2023-11-18T04:53:55;102310.06;;;3.08;69.74
79584;BME280;69053;57.338;18.700;2023-11-18T04:56:56;102310.91;;;3.09;69.74
79584;BME280;69053;57.338;18.700;2023-11-18T04:59:56;102313.63;;;3.09;70.02
79584;BME280;69053;57.338;18.700;2023-11-18T05:02:57;102317.16;;;3.09;70.39
79584;BME280;69053;57.338;18.700;2023-11-18T05:05:58;102319.00;;;3.09;70.29
79584;BME280;69053;57.338;18.700;2023-11-18T05:08:58;102321.81;;;3.07;70.53
79584;BME280;69053;57.338;18.700;2023-11-18T05:11:59;102329.03;;;3.07;70.49
79584;BME280;69053;57.338;18.700;2023-11-18T05:14:59;102316.56;;;3.06;70.82
79584;BME280;69053;57.338;18.700;2023-11-18T05:18:00;102314.88;;;3.05;70.97
79584;BME280;69053;57.338;18.700;2023-11-18T05:21:02;102321.22;;;3.04;71.16
79584;BME280;69053;57.338;18.700;2023-11-18T05:24:05;102332.09;;;3.02;71.19
79584;BME280;69053;57.338;18.700;2023-11-18T05:27:05;102330.28;;;3.03;71.50
79584;BME280;69053;57.338;18.700;2023-11-18T05:30:08;102329.28;;;3.04;71.22
79584;BME280;69053;57.338;18.700;2023-11-18T05:33:09;102320.25;;;3.05;71.42
79584;BME280;69053;57.338;18.700;2023-11-18T05:36:15;102331.97;;;3.04;71.47
79584;BME280;69053;57.338;18.700;2023-11-18T05:39:15;102331.03;;;3.05;71.52
79584;BME280;69053;57.338;18.700;2023-11-18T05:42:16;102333.84;;;3.03;71.91
79584;BME280;69053;57.338;18.700;2023-11-18T05:45:16;102334.94;;;3.00;71.76
79584;BME280;69053;57.338;18.700;2023-11-18T05:48:32;102336.06;;;2.98;72.21
79584;BME280;69053;57.338;18.700;2023-11-18T05:51:32;102337.00;;;2.97;72.46
79584;BME280;69053;57.338;18.700;2023-11-18T05:54:32;102348.66;;;2.97;72.46
79584;BME280;69053;57.338;18.700;2023-11-18T05:57:33;102342.41;;;2.97;72.60
79584;BME280;69053;57.338;18.700;2023-11-18T06:00:33;102336.19;;;2.96;72.42
79584;BME280;69053;57.338;18.700;2023-11-18T06:03:34;102339.09;;;2.93;72.81
79584;BME280;69053;57.338;18.700;2023-11-18T06:06:38;102345.88;;;2.88;73.41
79584;BME280;69053;57.338;18.700;2023-11-18T06:09:43;102339.28;;;2.80;73.69
79584;BME280;69053;57.338;18.700;2023-11-18T06:12:44;102340.25;;;2.79;73.89
79584;BME280;69053;57.338;18.700;2023-11-18T06:15:44;102342.09;;;2.79;73.81
79584;BME280;69053;57.338;18.700;2023-11-18T06:18:45;102353.56;;;2.81;73.66
79584;BME280;69053;57.338;18.700;2023-11-18T06:21:45;102359.81;;;2.81;73.77
79584;BME280;69053;57.338;18.700;2023-11-18T06:24:46;102367.03;;;2.81;73.83
79584;BME280;69053;57.338;18.700;2023-11-18T06:27:46;102367.28;;;2.78;74.32
79584;BME280;69053;57.338;18.700;2023-11-18T06:30:47;102368.28;;;2.77;74.35
79584;BME280;69053;57.338;18.700;2023-11-18T06:33:48;102366.19;;;2.80;74.26
79584;BME280;69053;57.338;18.700;2023-11-18T06:36:49;102373.88;;;2.85;73.79
79584;BME280;69053;57.338;18.700;2023-11-18T06:39:49;102374.34;;;2.90;73.97
79584;BME280;69053;57.338;18.700;2023-11-18T06:42:50;102375.09;;;2.92;73.70
79584;BME280;69053;57.338;18.700;2023-11-18T06:45:51;102374.22;;;2.92;73.66
79584;BME280;69053;57.338;18.700;2023-11-18T06:48:53;102378.16;;;2.88;74.11
79584;BME280;69053;57.338;18.700;2023-11-18T06:51:54;102379.84;;;2.89;73.67
79584;BME280;69053;57.338;18.700;2023-11-18T06:54:54;102378.88;;;2.90;74.01
79584;BME280;69053;57.338;18.700;2023-11-18T06:57:55;102370.94;;;2.88;74.00
79584;BME280;69053;57.338;18.700;2023-11-18T07:00:56;102378.88;;;2.90;74.03
79584;BME280;69053;57.338;18.700;2023-11-18T07:03:57;102381.22;;;2.94;73.88
79584;BME280;69053;57.338;18.700;2023-11-18T07:06:57;102389.78;;;2.99;73.95
79584;BME280;69053;57.338;18.700;2023-11-18T07:09:58;102393.78;;;3.05;73.80
79584;BME280;69053;57.338;18.700;2023-11-18T07:12:58;102391.69;;;3.09;73.95
79584;BME280;69053;57.338;18.700;2023-11-18T07:16:00;102383.38;;;3.12;73.70
79584;BME280;69053;57.338;18.700;2023-11-18T07:19:03;102396.47;;;3.16;74.09
79584;BME280;69053;57.338;18.700;2023-11-18T07:22:06;102391.69;;;3.20;73.84
79584;BME280;69053;57.338;18.700;2023-11-18T07:25:07;102397.66;;;3.24;74.11
79584;BME280;69053;57.338;18.700;2023-11-18T07:28:09;102396.41;;;3.28;73.81
79584;BME280;69053;57.338;18.700;2023-11-18T07:31:09;102398.75;;;3.32;74.11
79584;BME280;69053;57.338;18.700;2023-11-18T07:34:10;102404.47;;;3.39;74.24
79584;BME280;69053;57.338;18.700;2023-11-18T07:37:10;102412.31;;;3.42;73.97
79584;BME280;69053;57.338;18.700;2023-11-18T07:40:13;102409.94;;;3.49;74.00
79584;BME280;69053;57.338;18.700;2023-11-18T07:43:15;102404.03;;;3.55;74.36
79584;BME280;69053;57.338;18.700;2023-11-18T07:46:16;102412.84;;;3.57;74.24
79584;BME280;69053;57.338;18.700;2023-11-18T07:49:16;102404.16;;;3.53;74.21
79584;BME280;69053;57.338;18.700;2023-11-18T07:52:17;102403.69;;;3.48;74.57
79584;BME280;69053;57.338;18.700;2023-11-18T07:55:17;102408.38;;;3.46;75.22
79584;BME280;69053;57.338;18.700;2023-11-18T07:58:18;102406.41;;;3.48;75.32
79584;BME280;69053;57.338;18.700;2023-11-18T08:01:20;102408.00;;;3.51;75.15
79584;BME280;69053;57.338;18.700;2023-11-18T08:04:21;102399.63;;;3.54;74.77
79584;BME280;69053;57.338;18.700;2023-11-18T08:07:22;102414.56;;;3.58;75.14
79584;BME280;69053;57.338;18.700;2023-11-18T08:10:23;102415.41;;;3.59;74.94
79584;BME280;69053;57.338;18.700;2023-11-18T08:13:25;102412.34;;;3.63;74.93
79584;BME280;69053;57.338;18.700;2023-11-18T08:16:26;102413.53;;;3.70;74.76
79584;BME280;69053;57.338;18.700;2023-11-18T08:19:27;102413.28;;;3.73;74.47
79584;BME280;69053;57.338;18.700;2023-11-18T08:22:28;102406.91;;;3.74;74.82
79584;BME280;69053;57.338;18.700;2023-11-18T08:25:30;102406.03;;;3.74;74.70
79584;BME280;69053;57.338;18.700;2023-11-18T08:28:34;102399.03;;;3.83;74.86
79584;BME280;69053;57.338;18.700;2023-11-18T08:31:34;102409.41;;;3.87;74.62
79584;BME280;69053;57.338;18.700;2023-11-18T08:34:35;102416.84;;;3.95;74.08
79584;BME280;69053;57.338;18.700;2023-11-18T08:37:37;102416.19;;;4.03;74.27
79584;BME280;69053;57.338;18.700;2023-11-18T08:40:38;102418.91;;;4.03;74.40
79584;BME280;69053;57.338;18.700;2023-11-18T08:43:38;102412.00;;;4.10;74.54
79584;BME280;69053;57.338;18.700;2023-11-18T08:46:41;102419.81;;;4.13;73.84
79584;BME280;69053;57.338;18.700;2023-11-18T08:49:45;102428.88;;;4.12;74.15
79584;BME280;69053;57.338;18.700;2023-11-18T08:52:46;102428.38;;;4.18;74.15
79584;BME280;69053;57.338;18.700;2023-11-18T08:55:51;102425.81;;;4.17;74.14
79584;BME280;69053;57.338;18.700;2023-11-18T08:58:54;102432.50;;;4.22;73.37
79584;BME280;69053;57.338;18.700;2023-11-18T09:01:54;102425.59;;;4.29;73.41
79584;BME280;69053;57.338;18.700;2023-11-18T09:04:59;102427.19;;;4.32;73.36
79584;BME280;69053;57.338;18.700;2023-11-18T09:08:00;102415.00;;;4.38;73.18
79584;BME280;69053;57.338;18.700;2023-11-18T09:11:06;102419.00;;;4.43;73.19
79584;BME280;69053;57.338;18.700;2023-11-18T09:14:07;102419.53;;;4.37;73.75
79584;BME280;69053;57.338;18.700;2023-11-18T09:17:08;102427.31;;;4.30;74.22
79584;BME280;69053;57.338;18.700;2023-11-18T09:20:10;102419.22;;;4.30;74.24
79584;BME280;69053;57.338;18.700;2023-11-18T09:23:11;102422.81;;;4.41;74.11
79584;BME280;69053;57.338;18.700;2023-11-18T09:26:11;102428.94;;;4.43;73.97
79584;BME280;69053;57.338;18.700;2023-11-18T09:29:12;102425.53;;;4.41;74.17
79584;BME280;69053;57.338;18.700;2023-11-18T09:32:13;102432.09;;;4.48;74.19
79584;BME280;69053;57.338;18.700;2023-11-18T09:35:15;102435.06;;;4.45;74.12
79584;BME280;69053;57.338;18.700;2023-11-18T09:38:15;102435.63;;;4.48;74.23
79584;BME280;69053;57.338;18.700;2023-11-18T09:41:16;102443.34;;;4.53;74.17
79584;BME280;69053;57.338;18.700;2023-11-18T09:44:17;102433.84;;;4.59;73.96
79584;BME280;69053;57.338;18.700;2023-11-18T09:47:19;102438.41;;;4.58;73.88
79584;BME280;69053;57.338;18.700;2023-11-18T09:50:25;102437.41;;;4.59;73.60
79584;BME280;69053;57.338;18.700;2023-11-18T09:53:28;102436.72;;;4.67;74.12
79584;BME280;69053;57.338;18.700;2023-11-18T09:56:41;102429.63;;;4.66;73.55
79584;BME280;69053;57.338;18.700;2023-11-18T10:00:00;102435.03;;;4.66;73.54
79584;BME280;69053;57.338;18.700;2023-11-18T10:03:12;102440.56;;;4.64;73.77
79584;BME280;69053;57.338;18.700;2023-11-18T10:06:16;102432.34;;;4.66;73.68
79584;BME280;69053;57.338;18.700;2023-11-18T10:09:16;102430.34;;;4.68;73.52
79584;BME280;69053;57.338;18.700;2023-11-18T10:12:18;102433.91;;;4.68;73.72
79584;BME280;69053;57.338;18.700;2023-11-18T10:15:24;102431.06;;;4.70;73.35
79584;BME280;69053;57.338;18.700;2023-11-18T10:18:25;102420.97;;;4.72;73.21
79584;BME280;69053;57.338;18.700;2023-11-18T10:21:35;102424.84;;;4.79;73.47
79584;BME280;69053;57.338;18.700;2023-11-18T10:24:45;102426.28;;;4.83;73.05
79584;BME280;69053;57.338;18.700;2023-11-18T10:27:46;102423.16;;;4.88;73.30
79584;BME280;69053;57.338;18.700;2023-11-18T10:30:46;102417.50;;;4.91;73.26
79584;BME280;69053;57.338;18.700;2023-11-18T10:33:49;102419.66;;;4.97;72.92
79584;BME280;69053;57.338;18.700;2023-11-18T10:37:00;102420.28;;;5.11;72.87
79584;BME280;69053;57.338;18.700;2023-11-18T10:40:05;102417.44;;;5.22;72.77
79584;BME280;69053;57.338;18.700;2023-11-18T10:43:06;102413.06;;;5.31;72.20
79584;BME280;69053;57.338;18.700;2023-11-18T10:46:14;102412.78;;;5.34;71.87
79584;BME280;69053;57.338;18.700;2023-11-18T10:49:16;102419.91;;;5.35;72.00
79584;BME280;69053;57.338;18.700;2023-11-18T10:52:19;102424.44;;;5.34;71.56
79584;BME280;69053;57.338;18.700;2023-11-18T10:55:20;102426.28;;;5.34;71.68
79584;BME280;69053;57.338;18.700;2023-11-18T10:58:20;102427.28;;;5.33;71.52
79584;BME280;69053;57.338;18.700;2023-11-18T11:01:31;102418.63;;;5.39;71.15
79584;BME280;69053;57.338;18.700;2023-11-18T11:04:42;102426.88;;;5.47;70.70
79584;BME280;69053;57.338;18.700;2023-11-18T11:07:43;102423.16;;;5.48;70.52
79584;BME280;69053;57.338;18.700;2023-11-18T11:10:44;102420.19;;;5.51;70.30
79584;BME280;69053;57.338;18.700;2023-11-18T11:13:46;102429.16;;;5.52;69.85
79584;BME280;69053;57.338;18.700;2023-11-18T11:16:52;102425.72;;;5.50;69.66
79584;BME280;69053;57.338;18.700;2023-11-18T11:20:07;102429.56;;;5.57;69.80
79584;BME280;69053;57.338;18.700;2023-11-18T11:23:22;102430.44;;;5.67;69.58
79584;BME280;69053;57.338;18.700;2023-11-18T11:29:54;102430.19;;;5.60;68.81
79584;BME280;69053;57.338;18.700;2023-11-18T11:36:17;102449.25;;;5.59;68.74
79584;BME280;69053;57.338;18.700;2023-11-18T11:39:22;102443.97;;;5.57;68.09
79584;BME280;69053;57.338;18.700;2023-11-18T11:42:31;102442.38;;;5.55;68.01
79584;BME280;69053;57.338;18.700;2023-11-18T11:45:33;102437.41;;;5.50;67.64
79584;BME280;69053;57.338;18.700;2023-11-18T11:48:34;102437.41;;;5.50;67.59
79584;BME280;69053;57.338;18.700;2023-11-18T11:51:41;102440.84;;;5.52;68.19
79584;BME280;69053;57.338;18.700;2023-11-18T11:55:08;102438.72;;;5.66;67.65
79584;BME280;69053;57.338;18.700;2023-11-18T11:58:33;102432.03;;;5.70;67.29
79584;BME280;69053;57.338;18.700;2023-11-18T12:01:37;102440.00;;;5.71;67.03
79584;BME280;69053;57.338;18.700;2023-11-18T12:04:38;102435.44;;;5.72;67.16
79584;BME280;69053;57.338;18.700;2023-11-18T12:07:42;102437.16;;;5.73;67.05
79584;BME280;69053;57.338;18.700;2023-11-18T12:10:54;102443.94;;;5.67;66.77
79584;BME280;69053;57.338;18.700;2023-11-18T12:17:22;102428.44;;;5.50;66.13
79584;BME280;69053;57.338;18.700;2023-11-18T12:20:42;102433.84;;;5.50;66.47
79584;BME280;69053;57.338;18.700;2023-11-18T12:24:14;102442.38;;;5.55;66.22
79584;BME280;69053;57.338;18.700;2023-11-18T12:30:43;102456.72;;;5.36;66.02
79584;BME280;69053;57.338;18.700;2023-11-18T12:40:48;102442.34;;;5.25;66.64
79584;BME280;69053;57.338;18.700;2023-11-18T12:47:03;102442.78;;;5.31;67.14
79584;BME280;69053;57.338;18.700;2023-11-18T12:50:15;102441.78;;;5.32;67.38
79584;BME280;69053;57.338;18.700;2023-11-18T12:53:25;102446.75;;;5.26;67.53
79584;BME280;69053;57.338;18.700;2023-11-18T12:56:26;102441.91;;;5.20;67.73
79584;BME280;69053;57.338;18.700;2023-11-18T12:59:28;102438.91;;;5.23;67.97
79584;BME280;69053;57.338;18.700;2023-11-18T13:02:31;102440.34;;;5.28;67.63
79584;BME280;69053;57.338;18.700;2023-11-18T13:05:32;102448.00;;;5.22;68.01
79584;BME280;69053;57.338;18.700;2023-11-18T13:08:32;102444.28;;;5.14;67.63
79584;BME280;69053;57.338;18.700;2023-11-18T13:11:33;102443.97;;;5.07;67.83
79584;BME280;69053;57.338;18.700;2023-11-18T13:14:35;102446.97;;;5.04;68.19
79584;BME280;69053;57.338;18.700;2023-11-18T13:17:36;102452.91;;;4.98;67.98
79584;BME280;69053;57.338;18.700;2023-11-18T13:20:36;102450.63;;;4.93;68.19
79584;BME280;69053;57.338;18.700;2023-11-18T13:23:37;102450.63;;;4.93;68.45
79584;BME280;69053;57.338;18.700;2023-11-18T13:26:38;102442.81;;;4.90;68.39
79584;BME280;69053;57.338;18.700;2023-11-18T13:29:38;102444.63;;;4.89;68.23
79584;BME280;69053;57.338;18.700;2023-11-18T13:32:43;102442.66;;;4.92;68.32
79584;BME280;69053;57.338;18.700;2023-11-18T13:35:43;102443.53;;;4.92;68.55
79584;BME280;69053;57.338;18.700;2023-11-18T13:38:47;102438.69;;;4.96;68.54
79584;BME280;69053;57.338;18.700;2023-11-18T13:41:49;102434.00;;;4.98;68.55
79584;BME280;69053;57.338;18.700;2023-11-18T13:44:50;102433.56;;;4.93;68.56
79584;BME280;69053;57.338;18.700;2023-11-18T13:47:55;102432.16;;;4.88;69.02
79584;BME280;69053;57.338;18.700;2023-11-18T13:50:57;102435.44;;;4.92;69.37
79584;BME280;69053;57.338;18.700;2023-11-18T13:53:59;102430.88;;;4.93;69.29
79584;BME280;69053;57.338;18.700;2023-11-18T13:56:59;102435.09;;;4.85;68.99
79584;BME280;69053;57.338;18.700;2023-11-18T14:00:00;102432.69;;;4.82;69.68
79584;BME280;69053;57.338;18.700;2023-11-18T14:03:00;102432.69;;;4.82;69.71
79584;BME280;69053;57.338;18.700;2023-11-18T14:06:01;102434.41;;;4.83;69.75
79584;BME280;69053;57.338;18.700;2023-11-18T14:09:02;102436.22;;;4.83;69.33
79584;BME280;69053;57.338;18.700;2023-11-18T14:12:05;102434.94;;;4.77;69.49
79584;BME280;69053;57.338;18.700;2023-11-18T14:15:06;102430.94;;;4.72;69.51
79584;BME280;69053;57.338;18.700;2023-11-18T14:18:10;102434.59;;;4.70;69.90
79584;BME280;69053;57.338;18.700;2023-11-18T14:21:10;102424.06;;;4.67;69.67
79584;BME280;69053;57.338;18.700;2023-11-18T14:24:14;102421.22;;;4.59;70.05
79584;BME280;69053;57.338;18.700;2023-11-18T14:27:15;102424.91;;;4.58;70.18
79584;BME280;69053;57.338;18.700;2023-11-18T14:30:15;102425.41;;;4.52;70.35
79584;BME280;69053;57.338;18.700;2023-11-18T14:33:16;102427.53;;;4.48;70.50
79584;BME280;69053;57.338;18.700;2023-11-18T14:36:17;102428.81;;;4.44;70.23
79584;BME280;69053;57.338;18.700;2023-11-18T14:39:19;102428.22;;;4.41;70.05
79584;BME280;69053;57.338;18.700;2023-11-18T14:42:22;102422.25;;;4.37;70.46
79584;BME280;69053;57.338;18.700;2023-11-18T14:45:23;102416.25;;;4.34;70.63
79584;BME280;69053;57.338;18.700;2023-11-18T14:48:24;102419.47;;;4.27;71.07
79584;BME280;69053;57.338;18.700;2023-11-18T14:51:24;102417.31;;;4.21;70.84
79584;BME280;69053;57.338;18.700;2023-11-18T14:54:25;102412.31;;;4.17;71.35
79584;BME280;69053;57.338;18.700;2023-11-18T14:57:26;102418.22;;;4.10;71.64
79584;BME280;69053;57.338;18.700;2023-11-18T15:00:26;102416.91;;;4.05;71.67
79584;BME280;69053;57.338;18.700;2023-11-18T15:03:28;102421.25;;;3.96;71.38
79584;BME280;69053;57.338;18.700;2023-11-18T15:06:29;102418.22;;;3.89;71.59
79584;BME280;69053;57.338;18.700;2023-11-18T15:09:30;102413.34;;;3.83;71.77
79584;BME280;69053;57.338;18.700;2023-11-18T15:12:32;102421.13;;;3.77;71.93
79584;BME280;69053;57.338;18.700;2023-11-18T15:15:32;102426.53;;;3.65;71.83
79584;BME280;69053;57.338;18.700;2023-11-18T15:18:33;102425.34;;;3.58;72.14
79584;BME280;69053;57.338;18.700;2023-11-18T15:21:35;102426.25;;;3.47;72.34
79584;BME280;69053;57.338;18.700;2023-11-18T15:24:36;102434.59;;;3.44;72.65
79584;BME280;69053;57.338;18.700;2023-11-18T15:27:36;102427.59;;;3.42;72.87
79584;BME280;69053;57.338;18.700;2023-11-18T15:30:37;102428.59;;;3.41;72.96
79584;BME280;69053;57.338;18.700;2023-11-18T15:33:37;102427.84;;;3.38;72.90
79584;BME280;69053;57.338;18.700;2023-11-18T15:36:41;102422.63;;;3.37;73.08
79584;BME280;69053;57.338;18.700;2023-11-18T15:39:42;102429.81;;;3.36;73.03
79584;BME280;69053;57.338;18.700;2023-11-18T15:42:43;102426.28;;;3.36;73.09
79584;BME280;69053;57.338;18.700;2023-11-18T15:45:48;102426.41;;;3.34;73.54
79584;BME280;69053;57.338;18.700;2023-11-18T15:48:49;102416.59;;;3.33;73.22
79584;BME280;69053;57.338;18.700;2023-11-18T15:51:49;102419.28;;;3.33;73.67
79584;BME280;69053;57.338;18.700;2023-11-18T15:54:49;102417.22;;;3.37;73.86
79584;BME280;69053;57.338;18.700;2023-11-18T15:57:51;102412.56;;;3.39;73.24
79584;BME280;69053;57.338;18.700;2023-11-18T16:00:52;102411.56;;;3.40;73.47
79584;BME280;69053;57.338;18.700;2023-11-18T16:03:53;102410.47;;;3.43;73.36
79584;BME280;69053;57.338;18.700;2023-11-18T16:06:53;102408.25;;;3.48;73.60
79584;BME280;69053;57.338;18.700;2023-11-18T16:09:54;102405.56;;;3.48;73.29
79584;BME280;69053;57.338;18.700;2023-11-18T16:12:55;102405.44;;;3.49;73.26
79584;BME280;69053;57.338;18.700;2023-11-18T16:15:56;102401.84;;;3.49;73.50
79584;BME280;69053;57.338;18.700;2023-11-18T16:18:56;102402.00;;;3.47;73.42